Rabat, Morocco
Current Conditions -  °F | °C
As of 2:30 PM on Friday 24 Oct 2014 (Local Time) from GMME Reporting Station
Clear Clear  
Wind Chill: 73°   Ceiling: Unl
Heat Index: 73°   Visibility: 3mi
Dew Point: 61°   Wind: 8mph
Humidity: 65%   Direction: 300°WNW
Pressure: 29.91"   Gusts: NA
Location:  34.02°N, 6.84°W
Report Text: GMME 241330Z 30007KT 270V340 5000 NSC 23/16 Q1013 NOSIG
Loading
Personal Weather Stations






























Interactive Weather Map
Tropical Storm Tracking
New forecast layout! Learn more

10-Day Weather Forecast

Advertisements
Track Severe Weather on mobile